Chiricana — 3EKU3 — position and weather

sailwx.info

Track history (hours):
 
Tides and Currents Weather Stations Pressure Air Temp Water Temp Dewpoint Dewpoint Depression Visibility Wind Speed Wind Dir Waves Ship Positions

Chiricana

Last reported at 2017-Jun-25 16:08 UTC. Time now 2017-Jun-26 02:05 UTC.
Position N 23°58' E 118°19'.

Length 300 m; draft 12.9 m.

Type: Ship (hazmat cat A). MMSI: 372829000.

Date/timePositionNaut miles runAvg speedWind from/ knotsBaromVisibWave heightAir tempDewpointWater temp
2017-Jun-25 16:08N 23°58' E 118°19'215.7
2017-Jun-25 16:00N 24°00' E 118°19'815.7
2017-Jun-25 15:30N 24°08' E 118°19'713.6
2017-Jun-25 15:00N 24°15' E 118°16'1313.2
2017-Jun-25 14:00N 24°24' E 118°06'611.6
2017-Jun-25 13:30N 24°27' E 118°01'2 4.1
2017-Jun-25 13:00N 24°27' E 117°58'0 0.4
2017-Jun-25 12:30N 24°27' E 117°58'0 0.0
2017-Jun-25 11:56N 24°27' E 117°58'0 0.0
2017-Jun-25 11:29N 24°27' E 117°58'0 0.0
2017-Jun-25 10:59N 24°27' E 117°58'0 0.0
2017-Jun-25 10:26N 24°27' E 117°58'0 0.0
2017-Jun-25 09:59N 24°27' E 117°58'0 0.0
2017-Jun-25 09:29N 24°27' E 117°58'0 0.0
2017-Jun-25 08:59N 24°27' E 117°58'0 0.0
2017-Jun-25 08:29N 24°27' E 117°58'0 0.0
2017-Jun-25 07:59N 24°27' E 117°58'0 0.0
2017-Jun-25 07:29N 24°27' E 117°58'0 0.0
2017-Jun-25 06:59N 24°27' E 117°58'0 0.0
2017-Jun-25 06:29N 24°27' E 117°58'0 0.0
2017-Jun-25 05:59N 24°27' E 117°58'0 0.0
2017-Jun-25 05:29N 24°27' E 117°58'0 0.0
2017-Jun-25 04:59N 24°27' E 117°58'0 0.0
2017-Jun-25 04:29N 24°27' E 117°58'0 0.0
2017-Jun-25 03:59N 24°27' E 117°58'0 0.0
2017-Jun-25 03:29N 24°27' E 117°58'0 0.0
2017-Jun-25 02:59N 24°27' E 117°58'0 0.0
2017-Jun-25 02:17N 24°27' E 117°58'0 0.0
2017-Jun-25 01:59N 24°27' E 117°58'0 0.0
2017-Jun-25 01:26N 24°27' E 117°58'0 0.0
2017-Jun-25 00:59N 24°27' E 117°58'0 0.0
2017-Jun-25 00:29N 24°27' E 117°58'0 0.0
2017-Jun-24 23:59N 24°27' E 117°58'0 0.2
2017-Jun-24 23:30N 24°27' E 117°58'2 3.7
2017-Jun-24 23:00N 24°27' E 118°00'510.8
2017-Jun-24 22:30N 24°25' E 118°06'510.0
2017-Jun-24 22:00N 24°21' E 118°09'611.6
2017-Jun-24 21:31N 24°17' E 118°14'612.6
2017-Jun-24 21:00N 24°12' E 118°18'611.5
2017-Jun-24 20:30N 24°10' E 118°25'2 4.9
2017-Jun-24 20:00N 24°09' E 118°27'1 1.1
2017-Jun-24 19:30N 24°09' E 118°26'0 0.9
2017-Jun-24 18:59N 24°10' E 118°26'0 0.7
2017-Jun-24 18:30N 24°10' E 118°26'0 0.3
2017-Jun-24 18:00N 24°10' E 118°25'1 1.2
2017-Jun-24 17:27N 24°09' E 118°26'2 4.4
2017-Jun-24 16:58N 24°09' E 118°24'612.9
2017-Jun-24 16:29N 24°13' E 118°29'612.8
2017-Jun-24 16:00N 24°15' E 118°36'912.6
2017-Jun-24 15:19N 24°18' E 118°44'412.4
2017-Jun-24 15:00N 24°21' E 118°48'  
2017-Jun-21 17:52N 31°06' E 122°29'3 8.9
2017-Jun-21 17:29N 31°05' E 122°25'612.8
2017-Jun-21 17:01N 31°06' E 122°18'714.6
2017-Jun-21 16:30N 31°11' E 122°11'714.2
2017-Jun-21 16:00N 31°14' E 122°04'713.4
2017-Jun-21 15:30N 31°15' E 121°56'612.6
2017-Jun-21 15:00N 31°17' E 121°49'611.8
2017-Jun-21 14:30N 31°19' E 121°43'2 2.5
2017-Jun-21 13:30N 31°20' E 121°40'0 0.0
2017-Jun-21 13:00N 31°20' E 121°40'0 0.0
2017-Jun-21 12:30N 31°20' E 121°40'0 0.0
2017-Jun-21 11:57N 31°20' E 121°40'0 0.0
2017-Jun-21 11:30N 31°20' E 121°40'0 0.0
2017-Jun-21 11:00N 31°20' E 121°40'0 0.0
2017-Jun-21 10:30N 31°20' E 121°40'0 0.0
2017-Jun-21 10:01N 31°20' E 121°40'0 0.0
2017-Jun-21 09:31N 31°20' E 121°40'0 0.0
2017-Jun-21 09:00N 31°20' E 121°40'0 0.0
2017-Jun-21 08:30N 31°20' E 121°40'0 0.0
2017-Jun-21 08:00N 31°20' E 121°40'0 0.0
2017-Jun-21 07:30N 31°20' E 121°40'0 0.0
2017-Jun-21 06:57N 31°20' E 121°40'0 0.0
2017-Jun-21 06:31N 31°20' E 121°40'0 0.0
2017-Jun-21 06:00N 31°20' E 121°40'0 0.0
2017-Jun-21 05:30N 31°20' E 121°40'0 0.0
2017-Jun-21 05:00N 31°20' E 121°40'0 0.0
2017-Jun-21 04:30N 31°20' E 121°40'0 0.0
2017-Jun-21 04:00N 31°20' E 121°40'0 0.0
2017-Jun-21 03:31N 31°20' E 121°40'0 0.0
2017-Jun-21 03:00N 31°20' E 121°40'0 0.0
2017-Jun-21 02:27N 31°20' E 121°40'0 0.0
2017-Jun-21 02:00N 31°20' E 121°40'0 0.0
2017-Jun-21 01:30N 31°20' E 121°40'0 0.0
2017-Jun-21 00:54N 31°20' E 121°40'0 0.8
2017-Jun-21 00:30N 31°20' E 121°40'1 2.3
2017-Jun-21 00:00N 31°20' E 121°41'511.0
2017-Jun-20 23:31N 31°18' E 121°47'510.1
2017-Jun-20 23:01N 31°16' E 121°52'510.8
2017-Jun-20 22:30N 31°15' E 121°58'511.1
2017-Jun-20 22:01N 31°14' E 122°05'612.3
2017-Jun-20 21:30N 31°11' E 122°11'612.7
2017-Jun-20 21:00N 31°07' E 122°17'5 9.1
2017-Jun-20 20:30N 31°06' E 122°22'4 7.5
2017-Jun-20 19:55N 31°07' E 122°27'3 6.4
2017-Jun-20 19:30N 31°08' E 122°30'3 6.5
2017-Jun-20 18:59N 31°07' E 122°33'1 2.9
2017-Jun-20 18:29N 31°07' E 122°35'3 5.8
2017-Jun-20 17:57N 31°07' E 122°39'2 5.1
2017-Jun-20 17:30N 31°07' E 122°41'611.3
2017-Jun-20 16:58N 31°06' E 122°49'510.9
2017-Jun-20 16:31N 31°03' E 122°53'712.6
2017-Jun-20 15:58N 30°58' E 122°58'712.9
2017-Jun-20 15:26N 30°52' E 123°03'  
Track history (hours):
 
Tides and Currents Weather Stations Pressure Air Temp Water Temp Dewpoint Dewpoint Depression Visibility Wind Speed Wind Dir Waves Ship Positions

Chiricana

Last reported at 2017-Jun-25 16:08 UTC. Time now 2017-Jun-26 02:05 UTC.
Position N 23°58' E 118°19'.

Length 300 m; draft 12.9 m.

Type: Ship (hazmat cat A). MMSI: 372829000.

Date/timePositionNaut miles runAvg speedWind from/ knotsBaromVisibWave heightAir tempDewpointWater temp
2017-Jun-25 16:08N 23°58' E 118°19'215.7
2017-Jun-25 16:00N 24°00' E 118°19'815.7
2017-Jun-25 15:30N 24°08' E 118°19'713.6
2017-Jun-25 15:00N 24°15' E 118°16'1313.2
2017-Jun-25 14:00N 24°24' E 118°06'611.6
2017-Jun-25 13:30N 24°27' E 118°01'2 4.1
2017-Jun-25 13:00N 24°27' E 117°58'0 0.4
2017-Jun-25 12:30N 24°27' E 117°58'0 0.0
2017-Jun-25 11:56N 24°27' E 117°58'0 0.0
2017-Jun-25 11:29N 24°27' E 117°58'0 0.0
2017-Jun-25 10:59N 24°27' E 117°58'0 0.0
2017-Jun-25 10:26N 24°27' E 117°58'0 0.0
2017-Jun-25 09:59N 24°27' E 117°58'0 0.0
2017-Jun-25 09:29N 24°27' E 117°58'0 0.0
2017-Jun-25 08:59N 24°27' E 117°58'0 0.0
2017-Jun-25 08:29N 24°27' E 117°58'0 0.0
2017-Jun-25 07:59N 24°27' E 117°58'0 0.0
2017-Jun-25 07:29N 24°27' E 117°58'0 0.0
2017-Jun-25 06:59N 24°27' E 117°58'0 0.0
2017-Jun-25 06:29N 24°27' E 117°58'0 0.0
2017-Jun-25 05:59N 24°27' E 117°58'0 0.0
2017-Jun-25 05:29N 24°27' E 117°58'0 0.0
2017-Jun-25 04:59N 24°27' E 117°58'0 0.0
2017-Jun-25 04:29N 24°27' E 117°58'0 0.0
2017-Jun-25 03:59N 24°27' E 117°58'0 0.0
2017-Jun-25 03:29N 24°27' E 117°58'0 0.0
2017-Jun-25 02:59N 24°27' E 117°58'0 0.0
2017-Jun-25 02:17N 24°27' E 117°58'0 0.0
2017-Jun-25 01:59N 24°27' E 117°58'0 0.0
2017-Jun-25 01:26N 24°27' E 117°58'0 0.0
2017-Jun-25 00:59N 24°27' E 117°58'0 0.0
2017-Jun-25 00:29N 24°27' E 117°58'0 0.0
2017-Jun-24 23:59N 24°27' E 117°58'0 0.2
2017-Jun-24 23:30N 24°27' E 117°58'2 3.7
2017-Jun-24 23:00N 24°27' E 118°00'510.8
2017-Jun-24 22:30N 24°25' E 118°06'510.0
2017-Jun-24 22:00N 24°21' E 118°09'611.6
2017-Jun-24 21:31N 24°17' E 118°14'612.6
2017-Jun-24 21:00N 24°12' E 118°18'611.5
2017-Jun-24 20:30N 24°10' E 118°25'2 4.9
2017-Jun-24 20:00N 24°09' E 118°27'1 1.1
2017-Jun-24 19:30N 24°09' E 118°26'0 0.9
2017-Jun-24 18:59N 24°10' E 118°26'0 0.7
2017-Jun-24 18:30N 24°10' E 118°26'0 0.3
2017-Jun-24 18:00N 24°10' E 118°25'1 1.2
2017-Jun-24 17:27N 24°09' E 118°26'2 4.4
2017-Jun-24 16:58N 24°09' E 118°24'612.9
2017-Jun-24 16:29N 24°13' E 118°29'612.8
2017-Jun-24 16:00N 24°15' E 118°36'912.6
2017-Jun-24 15:19N 24°18' E 118°44'412.4
2017-Jun-24 15:00N 24°21' E 118°48'  
2017-Jun-21 17:52N 31°06' E 122°29'3 8.9
2017-Jun-21 17:29N 31°05' E 122°25'612.8
2017-Jun-21 17:01N 31°06' E 122°18'714.6
2017-Jun-21 16:30N 31°11' E 122°11'714.2
2017-Jun-21 16:00N 31°14' E 122°04'713.4
2017-Jun-21 15:30N 31°15' E 121°56'612.6
2017-Jun-21 15:00N 31°17' E 121°49'611.8
2017-Jun-21 14:30N 31°19' E 121°43'2 2.5
2017-Jun-21 13:30N 31°20' E 121°40'0 0.0
2017-Jun-21 13:00N 31°20' E 121°40'0 0.0
2017-Jun-21 12:30N 31°20' E 121°40'0 0.0
2017-Jun-21 11:57N 31°20' E 121°40'0 0.0
2017-Jun-21 11:30N 31°20' E 121°40'0 0.0
2017-Jun-21 11:00N 31°20' E 121°40'0 0.0
2017-Jun-21 10:30N 31°20' E 121°40'0 0.0
2017-Jun-21 10:01N 31°20' E 121°40'0 0.0
2017-Jun-21 09:31N 31°20' E 121°40'0 0.0
2017-Jun-21 09:00N 31°20' E 121°40'0 0.0
2017-Jun-21 08:30N 31°20' E 121°40'0 0.0
2017-Jun-21 08:00N 31°20' E 121°40'0 0.0
2017-Jun-21 07:30N 31°20' E 121°40'0 0.0
2017-Jun-21 06:57N 31°20' E 121°40'0 0.0
2017-Jun-21 06:31N 31°20' E 121°40'0 0.0
2017-Jun-21 06:00N 31°20' E 121°40'0 0.0
2017-Jun-21 05:30N 31°20' E 121°40'0 0.0
2017-Jun-21 05:00N 31°20' E 121°40'0 0.0
2017-Jun-21 04:30N 31°20' E 121°40'0 0.0
2017-Jun-21 04:00N 31°20' E 121°40'0 0.0
2017-Jun-21 03:31N 31°20' E 121°40'0 0.0
2017-Jun-21 03:00N 31°20' E 121°40'0 0.0
2017-Jun-21 02:27N 31°20' E 121°40'0 0.0
2017-Jun-21 02:00N 31°20' E 121°40'0 0.0
2017-Jun-21 01:30N 31°20' E 121°40'0 0.0
2017-Jun-21 00:54N 31°20' E 121°40'0 0.8
2017-Jun-21 00:30N 31°20' E 121°40'1 2.3
2017-Jun-21 00:00N 31°20' E 121°41'511.0
2017-Jun-20 23:31N 31°18' E 121°47'510.1
2017-Jun-20 23:01N 31°16' E 121°52'510.8
2017-Jun-20 22:30N 31°15' E 121°58'511.1
2017-Jun-20 22:01N 31°14' E 122°05'612.3
2017-Jun-20 21:30N 31°11' E 122°11'612.7
2017-Jun-20 21:00N 31°07' E 122°17'5 9.1
2017-Jun-20 20:30N 31°06' E 122°22'4 7.5
2017-Jun-20 19:55N 31°07' E 122°27'3 6.4
2017-Jun-20 19:30N 31°08' E 122°30'3 6.5
2017-Jun-20 18:59N 31°07' E 122°33'1 2.9
2017-Jun-20 18:29N 31°07' E 122°35'3 5.8
2017-Jun-20 17:57N 31°07' E 122°39'2 5.1
2017-Jun-20 17:30N 31°07' E 122°41'611.3
2017-Jun-20 16:58N 31°06' E 122°49'510.9
2017-Jun-20 16:31N 31°03' E 122°53'712.6
2017-Jun-20 15:58N 30°58' E 122°58'712.9
2017-Jun-20 15:26N 30°52' E 123°03'  

Dump ship's entire track history